createdAt,value
2023-06-03T00:00:32.066Z,98230.41
2023-06-03T00:03:01.391Z,98227.06
2023-06-03T00:05:30.661Z,98239.81
2023-06-03T00:07:59.754Z,98231.59
2023-06-03T00:10:28.921Z,98237.81
2023-06-03T00:12:58.101Z,98232.41
2023-06-03T00:15:27.410Z,98237.09
2023-06-03T00:17:57.104Z,98243.78
2023-06-03T00:20:26.502Z,98246.84
2023-06-03T00:22:55.639Z,98241.84
2023-06-03T00:25:25.139Z,98244.28
2023-06-03T00:27:54.395Z,98245.53
2023-06-03T00:30:23.641Z,98251.63
2023-06-03T00:32:53.034Z,98255.72
2023-06-03T00:35:22.256Z,98243.03
2023-06-03T00:37:51.396Z,98253.81
2023-06-03T00:40:20.734Z,98253.06
2023-06-03T00:42:50.758Z,98253.50
2023-06-03T00:45:19.987Z,98252.09
2023-06-03T00:47:49.243Z,98252.53
2023-06-03T00:50:18.488Z,98250.56
2023-06-03T00:52:47.997Z,98252.22
2023-06-03T00:55:17.442Z,98252.63
2023-06-03T00:57:48.539Z,98260.94
2023-06-03T01:00:17.681Z,98261.38
2023-06-03T01:02:47.842Z,98260.97
2023-06-03T01:05:17.440Z,98250.75
2023-06-03T01:07:49.583Z,98263.44
2023-06-03T01:10:47.423Z,98263.25
2023-06-03T01:13:49.142Z,98266.31
2023-06-03T01:16:21.740Z,98261.91
2023-06-03T01:18:52.972Z,98265.31
2023-06-03T01:21:25.681Z,98260.66
2023-06-03T01:23:54.853Z,98264.59
2023-06-03T01:26:24.251Z,98267.19
2023-06-03T01:28:53.401Z,98259.69
2023-06-03T01:31:22.649Z,98265.13
2023-06-03T01:33:52.252Z,98262.50
2023-06-03T01:36:21.493Z,98259.28
2023-06-03T01:38:50.742Z,98262.91
2023-06-03T01:41:19.994Z,98262.31
2023-06-03T01:43:49.181Z,98266.97
2023-06-03T01:46:18.674Z,98270.19
2023-06-03T01:48:47.817Z,98272.59
2023-06-03T01:51:16.954Z,98275.34
2023-06-03T01:53:46.189Z,98268.09
2023-06-03T01:56:16.675Z,98278.16
2023-06-03T01:58:46.226Z,98270.22
2023-06-03T02:01:15.452Z,98271.63
2023-06-03T02:03:44.620Z,98273.59
2023-06-03T02:06:14.924Z,98272.50
2023-06-03T02:08:44.210Z,98275.94
2023-06-03T02:11:13.346Z,98279.56
2023-06-03T02:13:43.955Z,98279.97
2023-06-03T02:16:13.144Z,98287.59
2023-06-03T02:18:43.444Z,98292.84
2023-06-03T02:21:12.552Z,98292.03
2023-06-03T02:23:41.782Z,98298.97
2023-06-03T02:26:14.854Z,98298.00
2023-06-03T02:28:44.058Z,98295.44
2023-06-03T02:31:14.954Z,98304.31
2023-06-03T02:33:44.924Z,98304.50
2023-06-03T02:36:15.824Z,98303.50
2023-06-03T02:38:46.107Z,98316.81
2023-06-03T02:41:15.943Z,98318.88
2023-06-03T02:43:45.667Z,98318.09
2023-06-03T02:46:14.853Z,98321.94
2023-06-03T02:48:44.030Z,98320.75
2023-06-03T02:51:13.172Z,98318.59
2023-06-03T02:53:42.325Z,98323.03
2023-06-03T02:56:11.640Z,98335.47
2023-06-03T02:58:41.079Z,98332.84
2023-06-03T03:01:10.409Z,98330.28
2023-06-03T03:03:41.669Z,98332.50
2023-06-03T03:06:16.790Z,98343.59
2023-06-03T03:08:46.392Z,98349.25
2023-06-03T03:11:16.019Z,98359.31
2023-06-03T03:13:46.344Z,98352.66
2023-06-03T03:16:18.611Z,98356.44
2023-06-03T03:18:52.277Z,98364.25
2023-06-03T03:21:22.048Z,98371.28
2023-06-03T03:23:51.705Z,98369.22
2023-06-03T03:26:23.190Z,98369.75
2023-06-03T03:28:54.896Z,98375.81
2023-06-03T03:31:27.576Z,98378.22
2023-06-03T03:33:56.885Z,98376.41
2023-06-03T03:36:27.491Z,98374.81
2023-06-03T03:39:04.398Z,98379.63
2023-06-03T03:41:36.859Z,98388.09
2023-06-03T03:44:06.765Z,98386.84
2023-06-03T03:46:36.449Z,98386.63
2023-06-03T03:49:06.595Z,98391.25
2023-06-03T03:51:36.536Z,98397.31
2023-06-03T03:54:06.179Z,98404.34
2023-06-03T03:56:36.210Z,98396.69
2023-06-03T03:59:05.894Z,98404.56
2023-06-03T04:01:41.426Z,98411.41
2023-06-03T04:04:44.956Z,98409.38
2023-06-03T04:07:23.557Z,98407.34
2023-06-03T04:09:52.802Z,98410.75
2023-06-03T04:12:33.668Z,98421.03
2023-06-03T04:15:05.659Z,98428.50
2023-06-03T04:17:39.173Z,98424.63
2023-06-03T04:20:32.653Z,98434.31
2023-06-03T04:23:05.552Z,98430.66
2023-06-03T04:25:35.003Z,98427.03
2023-06-03T04:28:04.698Z,98436.66
2023-06-03T04:30:33.894Z,98432.03
2023-06-03T04:33:03.755Z,98437.00
2023-06-03T04:35:34.702Z,98436.94
2023-06-03T04:38:04.320Z,98440.41
2023-06-03T04:40:33.588Z,98440.72
2023-06-03T04:43:04.855Z,98441.03
2023-06-03T04:45:35.892Z,98446.75
2023-06-03T04:48:06.726Z,98447.78
2023-06-03T04:50:38.780Z,98452.63
2023-06-03T04:53:10.755Z,98450.28
2023-06-03T04:55:45.395Z,98450.09
2023-06-03T04:58:21.151Z,98448.06
2023-06-03T05:00:52.318Z,98455.31
2023-06-03T05:03:21.709Z,98451.41
2023-06-03T05:05:51.709Z,98460.00
2023-06-03T05:08:23.103Z,98449.97
2023-06-03T05:10:54.414Z,98453.88
2023-06-03T05:13:23.857Z,98463.31
2023-06-03T05:15:53.217Z,98462.22
2023-06-03T05:18:22.473Z,98471.72
2023-06-03T05:20:51.618Z,98460.53
2023-06-03T05:23:20.785Z,98461.19
2023-06-03T05:25:51.175Z,98458.66
2023-06-03T05:28:20.463Z,98460.63
2023-06-03T05:30:50.145Z,98461.91
2023-06-03T05:33:30.891Z,98461.00
2023-06-03T05:36:06.226Z,98465.19
2023-06-03T05:38:35.472Z,98470.84
2023-06-03T05:41:08.121Z,98461.78
2023-06-03T05:43:38.314Z,98467.50
2023-06-03T05:46:08.391Z,98469.25
2023-06-03T05:48:38.665Z,98473.16
2023-06-03T05:51:09.378Z,98471.00
2023-06-03T05:53:44.884Z,98475.13
2023-06-03T05:56:16.052Z,98471.03
2023-06-03T05:58:45.361Z,98481.69
2023-06-03T06:01:15.035Z,98476.13
2023-06-03T06:03:45.781Z,98479.31
2023-06-03T06:06:17.015Z,98478.22
2023-06-03T06:08:46.235Z,98486.09
2023-06-03T06:11:16.111Z,98481.50
2023-06-03T06:13:45.482Z,98487.31
2023-06-03T06:16:17.111Z,98489.84
2023-06-03T06:18:46.980Z,98485.78
2023-06-03T06:21:17.231Z,98483.22
2023-06-03T06:23:48.141Z,98481.91
2023-06-03T06:26:17.564Z,98483.38
2023-06-03T06:28:48.032Z,98488.81
2023-06-03T06:31:20.097Z,98475.69
2023-06-03T06:33:55.599Z,98495.94
2023-06-03T06:36:51.172Z,98493.19
2023-06-03T06:39:48.428Z,98487.78
2023-06-03T06:42:43.820Z,98492.16
2023-06-03T06:45:29.532Z,98490.13
2023-06-03T06:48:12.976Z,98490.44
2023-06-03T06:50:56.720Z,98487.78
2023-06-03T06:53:30.737Z,98490.78
2023-06-03T06:56:10.009Z,98499.91
2023-06-03T06:59:00.566Z,98497.09
2023-06-03T07:01:29.818Z,98491.03
2023-06-03T07:04:00.678Z,98490.19
2023-06-03T07:06:30.174Z,98497.00
2023-06-03T07:09:07.422Z,98500.41
2023-06-03T07:11:44.513Z,98502.09
2023-06-03T07:14:14.824Z,98506.84
2023-06-03T07:16:44.922Z,98509.13
2023-06-03T07:19:14.926Z,98499.66
2023-06-03T07:21:48.274Z,98503.75
2023-06-03T07:24:17.756Z,98503.84
2023-06-03T07:26:50.709Z,98497.78
2023-06-03T07:29:20.241Z,98498.63
2023-06-03T07:31:50.852Z,98497.63
2023-06-03T07:34:23.151Z,98505.09
2023-06-03T07:36:53.576Z,98506.22
2023-06-03T07:39:23.943Z,98503.63
2023-06-03T07:41:59.171Z,98507.38
2023-06-03T07:44:43.245Z,98502.91
2023-06-03T07:47:14.720Z,98506.72
2023-06-03T07:49:49.220Z,98507.63
2023-06-03T07:52:22.544Z,98514.28
2023-06-03T07:54:51.842Z,98507.97
2023-06-03T07:57:21.138Z,98510.94
2023-06-03T07:59:57.329Z,98516.59
2023-06-03T08:02:27.132Z,98504.66
2023-06-03T08:05:01.267Z,98508.13
2023-06-03T08:07:30.821Z,98513.53
2023-06-03T08:09:59.998Z,98511.31
2023-06-03T08:12:31.887Z,98507.03
2023-06-03T08:15:04.374Z,98511.66
2023-06-03T08:17:42.994Z,98506.34
2023-06-03T08:20:13.484Z,98506.94
2023-06-03T08:22:46.386Z,98508.56
2023-06-03T08:25:19.776Z,98511.81
2023-06-03T08:27:50.709Z,98517.13
2023-06-03T08:30:23.731Z,98516.88
2023-06-03T08:32:53.374Z,98512.38
2023-06-03T08:35:23.415Z,98512.13
2023-06-03T08:37:53.408Z,98511.88
2023-06-03T08:40:24.788Z,98510.84
2023-06-03T08:43:03.594Z,98513.81
2023-06-03T08:45:39.270Z,98510.94
2023-06-03T08:48:34.160Z,98514.41
2023-06-03T08:51:06.996Z,98512.00
2023-06-03T08:53:45.776Z,98500.31
2023-06-03T08:56:18.098Z,98507.22
2023-06-03T08:58:50.584Z,98501.34
2023-06-03T09:03:58.019Z,98502.88
2023-06-03T09:06:27.609Z,98498.66
2023-06-03T09:08:58.864Z,98498.16
2023-06-03T09:11:28.217Z,98496.63
2023-06-03T09:13:57.993Z,98505.38
2023-06-03T09:16:28.525Z,98503.00
2023-06-03T09:18:58.706Z,98499.81
2023-06-03T09:21:28.365Z,98496.63
2023-06-03T09:23:57.536Z,98494.31
2023-06-03T09:26:26.898Z,98493.28
2023-06-03T09:28:56.226Z,98495.94
2023-06-03T09:31:26.099Z,98495.19
2023-06-03T09:33:55.927Z,98495.44
2023-06-03T09:36:26.895Z,98488.00
2023-06-03T09:38:57.076Z,98493.09
2023-06-03T09:41:28.181Z,98487.00
2023-06-03T09:44:04.770Z,98486.19
2023-06-03T09:46:34.811Z,98476.63
2023-06-03T09:49:13.829Z,98485.41
2023-06-03T09:51:44.009Z,98487.25
2023-06-03T09:54:17.881Z,98483.03
2023-06-03T09:56:47.276Z,98476.38
2023-06-03T09:59:19.616Z,98495.25
2023-06-03T10:01:50.499Z,98482.78
2023-06-03T10:04:23.632Z,98483.31
2023-06-03T10:07:11.850Z,98476.97
2023-06-03T10:09:48.645Z,98483.06
2023-06-03T10:12:31.412Z,98480.41
2023-06-03T10:15:01.159Z,98478.81
2023-06-03T10:17:33.321Z,98476.69
2023-06-03T10:20:05.868Z,98480.41
2023-06-03T10:22:36.496Z,98470.03
2023-06-03T10:25:08.118Z,98474.84
2023-06-03T10:27:37.358Z,98479.59
2023-06-03T10:30:08.748Z,98467.63
2023-06-03T10:32:38.247Z,98472.44
2023-06-03T10:35:07.788Z,98461.78
2023-06-03T10:37:37.481Z,98464.44
2023-06-03T10:40:08.066Z,98467.91
2023-06-03T10:42:38.941Z,98461.53
2023-06-03T10:45:08.654Z,98466.03
2023-06-03T10:47:41.941Z,98463.41
2023-06-03T10:50:22.794Z,98463.41
2023-06-03T10:53:08.777Z,98459.94
2023-06-03T10:55:43.954Z,98454.88
2023-06-03T10:58:23.888Z,98463.66
2023-06-03T11:00:57.143Z,98453.81
2023-06-03T11:03:30.316Z,98458.03
2023-06-03T11:06:32.243Z,98455.66
2023-06-03T11:09:06.681Z,98452.72
2023-06-03T11:11:42.213Z,98451.13
2023-06-03T11:14:43.803Z,98452.19
2023-06-03T11:17:14.121Z,98450.31
2023-06-03T11:19:46.145Z,98446.84
2023-06-03T11:22:38.805Z,98443.66
2023-06-03T11:25:08.944Z,98452.94
2023-06-03T11:27:38.350Z,98451.03
2023-06-03T11:30:08.543Z,98446.00
2023-06-03T11:32:39.731Z,98442.50
2023-06-03T11:35:26.657Z,98456.09
2023-06-03T11:37:56.027Z,98455.25
2023-06-03T11:40:25.245Z,98445.66
2023-06-03T11:42:57.265Z,98441.09
2023-06-03T11:45:28.292Z,98442.94
2023-06-03T11:48:08.633Z,98441.31
2023-06-03T11:50:54.602Z,98436.00
2023-06-03T11:53:30.746Z,98427.47
2023-06-03T11:56:11.956Z,98431.97
2023-06-03T11:58:42.787Z,98443.94
2023-06-03T12:01:18.577Z,98427.66
2023-06-03T12:04:01.028Z,98426.56
2023-06-03T12:06:37.390Z,98432.13
2023-06-03T12:09:06.677Z,98425.44
2023-06-03T12:11:41.669Z,98428.31
2023-06-03T12:14:33.907Z,98428.31
2023-06-03T12:17:14.898Z,98421.91
2023-06-03T12:19:46.522Z,98423.22
2023-06-03T12:22:23.751Z,98420.53
2023-06-03T12:24:53.291Z,98420.50
2023-06-03T12:27:24.355Z,98409.69
2023-06-03T12:29:58.292Z,98391.81
2023-06-03T12:32:32.857Z,98397.66
2023-06-03T12:35:12.520Z,98375.53
2023-06-03T12:37:41.870Z,98375.50
2023-06-03T12:40:22.856Z,98373.25
2023-06-03T12:42:51.986Z,98364.31
2023-06-03T12:45:27.263Z,98362.16
2023-06-03T12:47:57.227Z,98365.06
2023-06-03T12:50:34.735Z,98365.44
2023-06-03T12:53:19.573Z,98373.28
2023-06-03T12:55:49.174Z,98365.25
2023-06-03T12:58:19.787Z,98361.56
2023-06-03T13:00:48.957Z,98361.88
2023-06-03T13:03:18.519Z,98355.72
2023-06-03T13:05:48.412Z,98350.03
2023-06-03T13:08:17.749Z,98363.78
2023-06-03T13:10:47.200Z,98355.88
2023-06-03T13:13:16.686Z,98357.53
2023-06-03T13:15:45.802Z,98349.75
2023-06-03T13:18:14.958Z,98349.47
2023-06-03T13:20:44.107Z,98348.41
2023-06-03T13:23:13.432Z,98347.44
2023-06-03T13:25:42.789Z,98341.22
2023-06-03T13:28:11.966Z,98344.91
2023-06-03T13:30:41.127Z,98341.69
2023-06-03T13:33:10.360Z,98336.63
2023-06-03T13:35:39.637Z,98333.19
2023-06-03T13:38:08.762Z,98326.38
2023-06-03T13:40:37.902Z,98326.44
2023-06-03T13:43:07.106Z,98324.72
2023-06-03T13:45:36.276Z,98327.00
2023-06-03T13:48:05.603Z,98328.50
2023-06-03T13:50:34.969Z,98317.72
2023-06-03T13:53:04.102Z,98320.06
2023-06-03T13:55:33.217Z,98317.50
2023-06-03T13:58:02.354Z,98315.16
2023-06-03T14:00:31.456Z,98313.59
2023-06-03T14:03:00.766Z,98316.97
2023-06-03T14:05:30.033Z,98322.13
2023-06-03T14:07:59.254Z,98315.16
2023-06-03T14:10:28.328Z,98312.28
2023-06-03T14:12:57.430Z,98302.00
2023-06-03T14:15:27.206Z,98298.72
2023-06-03T14:17:56.391Z,98299.44
2023-06-03T14:20:25.503Z,98298.75
2023-06-03T14:22:54.731Z,98302.78
2023-06-03T14:25:23.915Z,98300.22
2023-06-03T14:27:53.068Z,98302.25
2023-06-03T14:30:28.373Z,98298.38
2023-06-03T14:33:02.236Z,98294.91
2023-06-03T14:35:31.456Z,98295.78
2023-06-03T14:38:00.695Z,98297.41
2023-06-03T14:40:29.952Z,98302.72
2023-06-03T14:42:59.277Z,98291.16
2023-06-03T14:45:28.382Z,98286.44
2023-06-03T14:47:57.548Z,98293.03
2023-06-03T14:50:26.664Z,98288.00
2023-06-03T14:52:55.855Z,98279.16
2023-06-03T14:55:24.957Z,98290.56
2023-06-03T14:57:54.088Z,98284.50
2023-06-03T15:00:23.469Z,98287.69
2023-06-03T15:02:52.770Z,98282.94
2023-06-03T15:05:22.147Z,98275.19
2023-06-03T15:07:51.335Z,98280.56
2023-06-03T15:10:20.458Z,98277.53
2023-06-03T15:12:49.835Z,98270.94
2023-06-03T15:15:19.039Z,98271.72
2023-06-03T15:17:48.293Z,98268.47
2023-06-03T15:20:17.591Z,98264.03
2023-06-03T15:22:46.835Z,98269.72
2023-06-03T15:25:16.220Z,98266.94
2023-06-03T15:27:45.532Z,98263.91
2023-06-03T15:30:14.812Z,98264.31
2023-06-03T15:32:44.129Z,98267.06
2023-06-03T15:35:13.625Z,98261.16
2023-06-03T15:37:42.826Z,98262.09
2023-06-03T15:40:12.456Z,98257.59
2023-06-03T15:42:42.184Z,98257.22
2023-06-03T15:45:11.526Z,98254.97
2023-06-03T15:47:40.710Z,98251.72
2023-06-03T15:50:09.893Z,98253.06
2023-06-03T15:52:39.125Z,98246.16
2023-06-03T15:55:08.527Z,98247.78
2023-06-03T15:57:37.706Z,98248.63
2023-06-03T16:00:07.544Z,98253.41
2023-06-03T16:02:36.835Z,98249.78
2023-06-03T16:05:06.742Z,98247.72
2023-06-03T16:07:35.895Z,98250.22
2023-06-03T16:10:05.376Z,98252.13
2023-06-03T16:12:34.547Z,98251.78
2023-06-03T16:15:03.857Z,98253.94
2023-06-03T16:17:33.551Z,98257.13
2023-06-03T16:20:03.001Z,98252.47
2023-06-03T16:22:32.537Z,98266.72
2023-06-03T16:25:01.865Z,98261.03
2023-06-03T16:27:31.247Z,98260.25
2023-06-03T16:30:00.536Z,98268.31
2023-06-03T16:32:30.031Z,98261.72
2023-06-03T16:34:59.243Z,98263.97
2023-06-03T16:37:28.372Z,98261.75
2023-06-03T16:39:58.734Z,98257.47
2023-06-03T16:42:27.905Z,98255.13
2023-06-03T16:44:56.991Z,98253.78
2023-06-03T16:47:26.204Z,98263.16
2023-06-03T16:49:56.141Z,98269.56
2023-06-03T16:52:25.344Z,98267.22
2023-06-03T16:54:54.477Z,98264.00
2023-06-03T16:57:27.848Z,98278.06
2023-06-03T16:59:57.424Z,98279.34
2023-06-03T17:02:26.763Z,98286.72
2023-06-03T17:04:57.818Z,98302.00
2023-06-03T17:07:27.062Z,98307.91
2023-06-03T17:09:56.228Z,98307.25
2023-06-03T17:12:25.604Z,98314.38
2023-06-03T17:14:55.936Z,98319.38
2023-06-03T17:17:25.131Z,98317.97
2023-06-03T17:19:54.295Z,98313.38
2023-06-03T17:22:23.547Z,98318.13
2023-06-03T17:24:52.703Z,98325.69
2023-06-03T17:27:21.785Z,98331.09
2023-06-03T17:29:51.242Z,98332.88
2023-06-03T17:32:20.440Z,98343.75
2023-06-03T17:34:49.587Z,98350.31
2023-06-03T17:37:19.836Z,98348.28
2023-06-03T17:39:48.947Z,98348.59
2023-06-03T17:42:18.407Z,98365.59
2023-06-03T17:44:48.802Z,98362.06
2023-06-03T17:47:19.189Z,98362.53
2023-06-03T17:49:48.367Z,98374.94
2023-06-03T17:52:18.116Z,98372.13
2023-06-03T17:54:47.248Z,98367.75
2023-06-03T17:57:16.356Z,98381.44
2023-06-03T17:59:45.523Z,98377.56
2023-06-03T18:02:14.689Z,98389.34
2023-06-03T18:04:43.905Z,98389.41
2023-06-03T18:07:15.208Z,98394.25
2023-06-03T18:09:45.618Z,98398.84
2023-06-03T18:12:15.214Z,98411.56
2023-06-03T18:14:44.322Z,98421.13
2023-06-03T18:17:13.973Z,98416.38
2023-06-03T18:19:43.111Z,98431.22
2023-06-03T18:22:12.222Z,98431.97
2023-06-03T18:24:41.353Z,98440.97
2023-06-03T18:27:10.592Z,98438.81
2023-06-03T18:29:40.055Z,98446.19
2023-06-03T18:32:09.367Z,98448.50
2023-06-03T18:34:44.841Z,98456.94
2023-06-03T18:37:14.061Z,98463.50
2023-06-03T18:39:43.381Z,98466.66
2023-06-03T18:42:12.501Z,98470.25
2023-06-03T18:44:41.591Z,98479.06
2023-06-03T18:47:10.888Z,98484.19
2023-06-03T18:49:40.039Z,98480.34
2023-06-03T18:52:10.148Z,98494.47
2023-06-03T18:54:39.378Z,98499.97
2023-06-03T18:57:08.464Z,98501.75
2023-06-03T18:59:37.694Z,98500.38
2023-06-03T19:02:07.545Z,98508.44
2023-06-03T19:04:39.163Z,98510.25
2023-06-03T19:07:08.296Z,98526.88
2023-06-03T19:09:37.427Z,98511.47
2023-06-03T19:12:07.292Z,98523.03
2023-06-03T19:14:36.514Z,98526.66
2023-06-03T19:17:05.828Z,98528.19
2023-06-03T19:19:34.945Z,98531.56
2023-06-03T19:22:04.220Z,98530.72
2023-06-03T19:24:33.306Z,98541.22
2023-06-03T19:27:02.659Z,98548.50
2023-06-03T19:29:31.914Z,98552.13
2023-06-03T19:32:01.828Z,98558.88
2023-06-03T19:34:31.365Z,98558.81
2023-06-03T19:37:00.762Z,98562.97
2023-06-03T19:39:30.985Z,98568.75
2023-06-03T19:42:00.139Z,98574.56
2023-06-03T19:44:29.285Z,98571.91
2023-06-03T19:46:58.494Z,98569.78
2023-06-03T19:49:27.702Z,98576.91
2023-06-03T19:51:56.778Z,98582.91
2023-06-03T19:54:26.198Z,98574.44
2023-06-03T19:56:56.206Z,98583.94
2023-06-03T19:59:25.696Z,98582.00
2023-06-03T20:01:54.780Z,98585.09
2023-06-03T20:04:23.989Z,98587.44
2023-06-03T20:06:53.093Z,98593.19
2023-06-03T20:09:22.543Z,98590.88
2023-06-03T20:11:51.927Z,98586.88
2023-06-03T20:14:21.183Z,98596.31
2023-06-03T20:16:51.055Z,98592.13
2023-06-03T20:19:21.075Z,98595.97
2023-06-03T20:21:50.203Z,98597.56
2023-06-03T20:24:19.296Z,98596.63
2023-06-03T20:26:48.463Z,98598.22
2023-06-03T20:29:18.911Z,98597.09
2023-06-03T20:31:48.077Z,98600.53
2023-06-03T20:34:17.358Z,98601.56
2023-06-03T20:36:46.468Z,98605.50
2023-06-03T20:39:16.127Z,98610.44
2023-06-03T20:41:45.227Z,98612.72
2023-06-03T20:44:14.312Z,98600.59
2023-06-03T20:46:43.540Z,98602.66
2023-06-03T20:49:12.694Z,98607.16
2023-06-03T20:51:42.094Z,98609.69
2023-06-03T20:54:11.331Z,98602.84
2023-06-03T20:56:41.654Z,98613.19
2023-06-03T20:59:11.028Z,98618.47
2023-06-03T21:01:41.225Z,98611.56
2023-06-03T21:04:12.144Z,98617.31
2023-06-03T21:06:43.473Z,98617.00
2023-06-03T21:09:12.895Z,98626.09
2023-06-03T21:11:43.940Z,98626.91
2023-06-03T21:14:13.310Z,98621.19
2023-06-03T21:16:42.542Z,98626.34
2023-06-03T21:19:14.862Z,98631.50
2023-06-03T21:21:45.184Z,98630.84
2023-06-03T21:24:14.327Z,98632.31
2023-06-03T21:26:43.406Z,98637.00
2023-06-03T21:29:12.470Z,98633.47
2023-06-03T21:31:41.720Z,98630.25
2023-06-03T21:34:11.190Z,98639.91
2023-06-03T21:36:40.393Z,98638.75
2023-06-03T21:39:10.897Z,98636.34
2023-06-03T21:41:40.025Z,98636.09
2023-06-03T21:44:09.653Z,98642.53
2023-06-03T21:46:38.803Z,98637.16
2023-06-03T21:49:07.924Z,98645.53
2023-06-03T21:51:37.998Z,98643.66
2023-06-03T21:54:07.253Z,98654.34
2023-06-03T21:56:36.299Z,98657.53
2023-06-03T21:59:05.452Z,98655.91
2023-06-03T22:01:34.786Z,98652.44
2023-06-03T22:04:03.957Z,98656.66
2023-06-03T22:06:33.204Z,98665.66
2023-06-03T22:09:02.412Z,98650.59
2023-06-03T22:11:34.490Z,98661.22
2023-06-03T22:14:03.687Z,98653.06
2023-06-03T22:16:32.905Z,98659.22
2023-06-03T22:19:02.147Z,98656.09
2023-06-03T22:21:33.978Z,98652.75
2023-06-03T22:24:03.238Z,98657.50
2023-06-03T22:26:32.445Z,98658.81
2023-06-03T22:29:01.883Z,98664.97
2023-06-03T22:31:31.095Z,98655.31
2023-06-03T22:34:00.372Z,98659.50
2023-06-03T22:36:29.455Z,98653.72
2023-06-03T22:38:58.529Z,98658.00
2023-06-03T22:41:27.919Z,98660.91
2023-06-03T22:43:57.299Z,98667.00
2023-06-03T22:46:26.452Z,98654.38
2023-06-03T22:48:55.632Z,98660.09
2023-06-03T22:51:24.761Z,98661.78
2023-06-03T22:53:54.122Z,98654.00
2023-06-03T22:56:23.731Z,98658.72
2023-06-03T22:58:52.826Z,98661.81
2023-06-03T23:01:21.954Z,98668.72
2023-06-03T23:03:51.463Z,98664.94
2023-06-03T23:06:20.594Z,98671.25
2023-06-03T23:08:49.754Z,98674.53
2023-06-03T23:11:18.870Z,98667.72
2023-06-03T23:13:47.993Z,98670.19
2023-06-03T23:16:17.276Z,98677.88
2023-06-03T23:18:46.490Z,98663.56
2023-06-03T23:21:15.707Z,98671.66
2023-06-03T23:23:44.991Z,98668.81
2023-06-03T23:26:14.204Z,98672.50
2023-06-03T23:28:43.371Z,98676.75
2023-06-03T23:31:12.883Z,98673.16
2023-06-03T23:33:41.945Z,98673.56
2023-06-03T23:36:11.145Z,98669.97
2023-06-03T23:38:40.437Z,98660.72
2023-06-03T23:41:09.534Z,98659.50
2023-06-03T23:43:38.646Z,98659.72
2023-06-03T23:46:07.742Z,98661.53
2023-06-03T23:48:36.877Z,98656.13
2023-06-03T23:51:06.295Z,98659.13
2023-06-03T23:53:35.674Z,98666.81
2023-06-03T23:56:04.971Z,98665.41
2023-06-03T23:58:34.206Z,98663.63
